sensor_id;sensor_type;location;lat;lon;timestamp;P1;durP1;ratioP1;P2;durP2;ratioP2
12072;SDS011;6098;49.004;8.372;2023-09-08T00:05:57;4.84;;;4.34;;
12072;SDS011;6098;49.004;8.372;2023-09-08T00:20:49;5.82;;;4.60;;
12072;SDS011;6098;49.004;8.372;2023-09-08T00:35:48;5.72;;;4.60;;
12072;SDS011;6098;49.004;8.372;2023-09-08T00:50:39;6.90;;;4.53;;
12072;SDS011;6098;49.004;8.372;2023-09-08T01:51:50;5.61;;;5.01;;
12072;SDS011;6098;49.004;8.372;2023-09-08T02:06:46;8.52;;;5.10;;
12072;SDS011;6098;49.004;8.372;2023-09-08T02:21:38;5.28;;;4.71;;
12072;SDS011;6098;49.004;8.372;2023-09-08T02:36:31;5.91;;;5.30;;
12072;SDS011;6098;49.004;8.372;2023-09-08T02:51:23;6.80;;;4.80;;
12072;SDS011;6098;49.004;8.372;2023-09-08T03:06:18;8.01;;;5.26;;
12072;SDS011;6098;49.004;8.372;2023-09-08T03:21:09;8.85;;;5.62;;
12072;SDS011;6098;49.004;8.372;2023-09-08T03:36:01;5.81;;;4.90;;
12072;SDS011;6098;49.004;8.372;2023-09-08T03:50:54;6.97;;;5.16;;
12072;SDS011;6098;49.004;8.372;2023-09-08T04:05:46;7.24;;;6.12;;
12072;SDS011;6098;49.004;8.372;2023-09-08T04:20:37;7.11;;;5.56;;
12072;SDS011;6098;49.004;8.372;2023-09-08T04:35:28;6.93;;;5.03;;
12072;SDS011;6098;49.004;8.372;2023-09-08T04:50:20;6.57;;;5.20;;
12072;SDS011;6098;49.004;8.372;2023-09-08T05:05:12;8.86;;;5.71;;
12072;SDS011;6098;49.004;8.372;2023-09-08T05:20:05;9.36;;;5.46;;
12072;SDS011;6098;49.004;8.372;2023-09-08T05:34:57;7.14;;;5.30;;
12072;SDS011;6098;49.004;8.372;2023-09-08T05:49:51;9.74;;;5.51;;
12072;SDS011;6098;49.004;8.372;2023-09-08T06:04:43;10.00;;;5.96;;
12072;SDS011;6098;49.004;8.372;2023-09-08T06:19:36;9.11;;;6.46;;
12072;SDS011;6098;49.004;8.372;2023-09-08T06:34:28;9.25;;;6.79;;
12072;SDS011;6098;49.004;8.372;2023-09-08T06:49:21;8.49;;;6.29;;
12072;SDS011;6098;49.004;8.372;2023-09-08T07:04:14;7.71;;;6.47;;
12072;SDS011;6098;49.004;8.372;2023-09-08T07:19:07;11.51;;;7.44;;
12072;SDS011;6098;49.004;8.372;2023-09-08T07:34:00;10.30;;;7.05;;
12072;SDS011;6098;49.004;8.372;2023-09-08T07:48:54;10.60;;;7.28;;
12072;SDS011;6098;49.004;8.372;2023-09-08T08:03:47;11.14;;;8.24;;
12072;SDS011;6098;49.004;8.372;2023-09-08T08:18:41;10.75;;;8.64;;
12072;SDS011;6098;49.004;8.372;2023-09-08T08:33:35;11.86;;;8.90;;
12072;SDS011;6098;49.004;8.372;2023-09-08T08:48:29;11.06;;;8.19;;
12072;SDS011;6098;49.004;8.372;2023-09-08T09:03:23;11.91;;;8.61;;
12072;SDS011;6098;49.004;8.372;2023-09-08T09:18:15;9.50;;;7.82;;
12072;SDS011;6098;49.004;8.372;2023-09-08T09:33:09;9.40;;;7.49;;
12072;SDS011;6098;49.004;8.372;2023-09-08T09:48:04;9.25;;;7.68;;
12072;SDS011;6098;49.004;8.372;2023-09-08T10:02:59;12.01;;;8.18;;
12072;SDS011;6098;49.004;8.372;2023-09-08T10:17:55;9.32;;;8.07;;
12072;SDS011;6098;49.004;8.372;2023-09-08T10:32:50;10.64;;;8.18;;
12072;SDS011;6098;49.004;8.372;2023-09-08T11:02:49;9.74;;;7.99;;
12072;SDS011;6098;49.004;8.372;2023-09-08T11:17:50;8.06;;;7.26;;
12072;SDS011;6098;49.004;8.372;2023-09-08T11:32:43;8.64;;;7.07;;
12072;SDS011;6098;49.004;8.372;2023-09-08T11:47:41;9.67;;;6.47;;
12072;SDS011;6098;49.004;8.372;2023-09-08T12:02:39;8.76;;;6.77;;
12072;SDS011;6098;49.004;8.372;2023-09-08T12:17:32;6.82;;;6.12;;
12072;SDS011;6098;49.004;8.372;2023-09-08T12:32:26;7.86;;;7.06;;
12072;SDS011;6098;49.004;8.372;2023-09-08T12:47:22;9.42;;;6.63;;
12072;SDS011;6098;49.004;8.372;2023-09-08T13:02:16;10.01;;;6.72;;
12072;SDS011;6098;49.004;8.372;2023-09-08T13:32:04;7.92;;;7.00;;
12072;SDS011;6098;49.004;8.372;2023-09-08T13:46:57;7.47;;;6.27;;
12072;SDS011;6098;49.004;8.372;2023-09-08T14:01:51;7.33;;;5.88;;
12072;SDS011;6098;49.004;8.372;2023-09-08T14:16:44;6.29;;;5.69;;
12072;SDS011;6098;49.004;8.372;2023-09-08T14:31:37;7.56;;;6.33;;
12072;SDS011;6098;49.004;8.372;2023-09-08T14:46:31;6.04;;;5.44;;
12072;SDS011;6098;49.004;8.372;2023-09-08T15:01:26;6.14;;;5.64;;
12072;SDS011;6098;49.004;8.372;2023-09-08T15:16:22;7.02;;;5.47;;
12072;SDS011;6098;49.004;8.372;2023-09-08T15:31:17;7.02;;;6.31;;
12072;SDS011;6098;49.004;8.372;2023-09-08T15:46:09;6.58;;;5.80;;
12072;SDS011;6098;49.004;8.372;2023-09-08T16:01:02;6.31;;;5.71;;
12072;SDS011;6098;49.004;8.372;2023-09-08T16:15:55;6.94;;;6.23;;
12072;SDS011;6098;49.004;8.372;2023-09-08T16:30:48;7.71;;;6.03;;
12072;SDS011;6098;49.004;8.372;2023-09-08T16:45:40;7.66;;;6.48;;
12072;SDS011;6098;49.004;8.372;2023-09-08T17:00:33;8.04;;;5.44;;
12072;SDS011;6098;49.004;8.372;2023-09-08T17:15:26;6.49;;;5.87;;
12072;SDS011;6098;49.004;8.372;2023-09-08T17:30:19;8.19;;;6.22;;
12072;SDS011;6098;49.004;8.372;2023-09-08T17:45:12;7.39;;;6.10;;
12072;SDS011;6098;49.004;8.372;2023-09-08T18:00:06;8.31;;;7.41;;
12072;SDS011;6098;49.004;8.372;2023-09-08T18:14:59;9.30;;;8.29;;
12072;SDS011;6098;49.004;8.372;2023-09-08T18:29:52;10.56;;;8.01;;
12072;SDS011;6098;49.004;8.372;2023-09-08T18:44:43;9.88;;;8.16;;
12072;SDS011;6098;49.004;8.372;2023-09-08T18:59:35;16.62;;;12.32;;
12072;SDS011;6098;49.004;8.372;2023-09-08T19:14:26;12.66;;;10.94;;
12072;SDS011;6098;49.004;8.372;2023-09-08T19:29:19;15.16;;;12.57;;
12072;SDS011;6098;49.004;8.372;2023-09-08T19:44:11;30.43;;;22.52;;
12072;SDS011;6098;49.004;8.372;2023-09-08T19:59:03;32.26;;;26.54;;
12072;SDS011;6098;49.004;8.372;2023-09-08T20:13:55;28.21;;;22.61;;
12072;SDS011;6098;49.004;8.372;2023-09-08T20:28:48;21.27;;;17.50;;
12072;SDS011;6098;49.004;8.372;2023-09-08T20:43:46;14.49;;;12.66;;
12072;SDS011;6098;49.004;8.372;2023-09-08T20:58:38;14.37;;;11.39;;
12072;SDS011;6098;49.004;8.372;2023-09-08T21:13:31;14.38;;;11.49;;
12072;SDS011;6098;49.004;8.372;2023-09-08T21:28:22;15.75;;;12.41;;
12072;SDS011;6098;49.004;8.372;2023-09-08T21:43:13;18.86;;;14.00;;
12072;SDS011;6098;49.004;8.372;2023-09-08T21:58:07;18.29;;;13.34;;
12072;SDS011;6098;49.004;8.372;2023-09-08T22:12:59;13.91;;;10.71;;
12072;SDS011;6098;49.004;8.372;2023-09-08T22:27:52;14.10;;;11.91;;
12072;SDS011;6098;49.004;8.372;2023-09-08T22:42:44;17.90;;;13.52;;
12072;SDS011;6098;49.004;8.372;2023-09-08T22:57:36;14.99;;;12.79;;
12072;SDS011;6098;49.004;8.372;2023-09-08T23:12:30;17.70;;;13.07;;
12072;SDS011;6098;49.004;8.372;2023-09-08T23:27:23;16.56;;;13.05;;
12072;SDS011;6098;49.004;8.372;2023-09-08T23:42:17;18.58;;;14.13;;
12072;SDS011;6098;49.004;8.372;2023-09-08T23:57:10;18.31;;;13.00;;
